createdAt,value
2019-03-24T00:00:53.184Z,64.60
2019-03-24T00:03:21.923Z,65.20
2019-03-24T00:05:51.165Z,65.50
2019-03-24T00:08:20.424Z,66.50
2019-03-24T00:10:49.723Z,68.00
2019-03-24T00:13:18.604Z,67.00
2019-03-24T00:15:47.726Z,66.10
2019-03-24T00:18:17.084Z,65.00
2019-03-24T00:20:46.204Z,64.90
2019-03-24T00:23:15.825Z,65.00
2019-03-24T00:25:45.145Z,65.90
2019-03-24T00:28:14.104Z,66.80
2019-03-24T00:30:43.953Z,66.00
2019-03-24T00:33:12.885Z,67.00
2019-03-24T00:35:41.927Z,67.90
2019-03-24T00:38:11.223Z,67.50
2019-03-24T00:40:39.944Z,67.30
2019-03-24T00:43:08.825Z,66.50
2019-03-24T00:45:38.044Z,65.40
2019-03-24T00:48:07.343Z,64.30
2019-03-24T00:50:36.127Z,64.30
2019-03-24T00:53:04.972Z,64.70
2019-03-24T00:55:34.444Z,65.30
2019-03-24T00:58:03.145Z,65.70
2019-03-24T01:00:43.450Z,66.70
2019-03-24T01:03:12.444Z,66.40
2019-03-24T01:05:41.483Z,66.10
2019-03-24T01:08:10.846Z,65.60
2019-03-24T01:10:41.224Z,66.30
2019-03-24T01:13:10.141Z,67.10
2019-03-24T01:15:47.343Z,67.10
2019-03-24T01:18:10.807Z,67.40
2019-03-24T01:20:39.883Z,66.50
2019-03-24T01:23:08.803Z,66.70
2019-03-24T01:25:37.789Z,66.60
2019-03-24T01:28:06.623Z,67.40
2019-03-24T01:30:35.469Z,67.50
2019-03-24T01:33:04.643Z,67.20
2019-03-24T01:35:34.064Z,67.60
2019-03-24T01:38:03.145Z,68.80
2019-03-24T01:40:32.391Z,68.00
2019-03-24T01:43:01.586Z,67.20
2019-03-24T01:45:31.343Z,67.00
2019-03-24T01:48:00.264Z,68.10
2019-03-24T01:50:29.763Z,69.50
2019-03-24T01:52:59.084Z,68.70
2019-03-24T01:55:28.324Z,68.20
2019-03-24T01:57:57.924Z,67.50
2019-03-24T02:00:27.644Z,66.50
2019-03-24T02:02:56.427Z,66.60
2019-03-24T02:05:25.343Z,66.40
2019-03-24T02:07:54.124Z,66.00
2019-03-24T02:10:23.083Z,67.20
2019-03-24T02:12:51.866Z,66.50
2019-03-24T02:15:20.645Z,66.90
2019-03-24T02:17:49.744Z,66.50
2019-03-24T02:20:18.983Z,66.70
2019-03-24T02:22:48.363Z,66.70
2019-03-24T02:25:17.183Z,67.80
2019-03-24T02:27:46.163Z,66.90
2019-03-24T02:30:15.708Z,66.80
2019-03-24T02:32:45.132Z,66.10
2019-03-24T02:35:14.084Z,66.70
2019-03-24T02:37:44.523Z,67.30
2019-03-24T02:40:13.385Z,67.50
2019-03-24T02:42:42.604Z,68.30
2019-03-24T02:45:11.468Z,70.30
2019-03-24T02:47:40.364Z,71.70
2019-03-24T02:50:10.407Z,70.20
2019-03-24T02:52:39.767Z,70.80
2019-03-24T02:55:08.865Z,68.90
2019-03-24T02:57:37.886Z,67.70
2019-03-24T03:00:11.704Z,66.60
2019-03-24T03:02:41.004Z,66.90
2019-03-24T03:05:09.764Z,67.00
2019-03-24T03:07:38.747Z,67.40
2019-03-24T03:10:08.483Z,68.70
2019-03-24T03:12:37.227Z,69.70
2019-03-24T03:15:08.052Z,70.10
2019-03-24T03:17:39.054Z,70.50
2019-03-24T03:20:08.723Z,69.60
2019-03-24T03:22:38.101Z,68.50
2019-03-24T03:25:09.374Z,68.30
2019-03-24T03:27:38.169Z,67.30
2019-03-24T03:30:08.297Z,65.90
2019-03-24T03:32:37.186Z,65.70
2019-03-24T03:35:08.707Z,64.90
2019-03-24T03:37:37.985Z,64.70
2019-03-24T03:40:08.107Z,64.50
2019-03-24T03:42:38.837Z,64.40
2019-03-24T03:45:10.787Z,64.10
2019-03-24T03:47:40.502Z,64.50
2019-03-24T03:50:09.978Z,65.80
2019-03-24T03:52:38.844Z,64.70
2019-03-24T03:55:07.845Z,65.30
2019-03-24T03:57:36.665Z,65.40
2019-03-24T04:03:08.265Z,65.40
2019-03-24T04:05:37.326Z,65.30
2019-03-24T04:08:06.232Z,66.90
2019-03-24T04:10:35.348Z,66.50
2019-03-24T04:13:04.126Z,66.30
2019-03-24T04:15:33.505Z,66.60
2019-03-24T04:18:02.390Z,66.60
2019-03-24T04:20:31.392Z,67.60
2019-03-24T04:23:00.425Z,67.30
2019-03-24T04:25:30.506Z,66.30
2019-03-24T04:27:59.784Z,66.70
2019-03-24T04:30:28.684Z,66.20
2019-03-24T04:32:57.385Z,65.30
2019-03-24T04:35:26.106Z,65.10
2019-03-24T04:37:55.223Z,65.90
2019-03-24T04:40:24.465Z,65.80
2019-03-24T04:42:53.421Z,65.70
2019-03-24T04:45:22.745Z,66.50
2019-03-24T04:47:51.603Z,65.90
2019-03-24T04:50:20.404Z,67.50
2019-03-24T04:52:49.863Z,67.90
2019-03-24T04:55:18.745Z,67.20
2019-03-24T04:57:47.764Z,67.10
2019-03-24T05:00:16.632Z,67.40
2019-03-24T05:02:45.544Z,68.00
2019-03-24T05:05:14.685Z,67.00
2019-03-24T05:07:43.707Z,66.20
2019-03-24T05:10:15.885Z,66.80
2019-03-24T05:12:44.691Z,66.00
2019-03-24T05:15:13.948Z,66.70
2019-03-24T05:17:42.784Z,67.00
2019-03-24T05:20:11.863Z,66.80
2019-03-24T05:22:40.644Z,67.00
2019-03-24T05:25:09.374Z,68.10
2019-03-24T05:27:40.992Z,67.70
2019-03-24T05:30:09.612Z,66.60
2019-03-24T05:32:38.444Z,67.40
2019-03-24T05:35:07.280Z,67.10
2019-03-24T05:37:36.525Z,67.30
2019-03-24T05:40:05.885Z,67.80
2019-03-24T05:42:34.924Z,67.60
2019-03-24T05:45:08.085Z,67.30
2019-03-24T05:47:37.579Z,66.60
2019-03-24T05:50:08.344Z,66.40
2019-03-24T05:52:37.484Z,65.10
2019-03-24T05:55:10.124Z,65.00
2019-03-24T05:57:39.445Z,65.20
2019-03-24T06:00:08.150Z,66.50
2019-03-24T06:02:37.084Z,67.00
2019-03-24T06:05:06.484Z,67.90
2019-03-24T06:07:35.324Z,69.10
2019-03-24T06:10:07.283Z,68.90
2019-03-24T06:12:36.245Z,69.60
2019-03-24T06:15:11.366Z,71.10
2019-03-24T06:17:47.771Z,70.50
2019-03-24T06:20:11.383Z,70.30
2019-03-24T06:22:45.905Z,69.60
2019-03-24T06:25:14.548Z,69.50
2019-03-24T06:27:43.307Z,70.20
2019-03-24T06:30:12.164Z,71.20
2019-03-24T06:32:40.994Z,71.10
2019-03-24T06:35:10.010Z,70.00
2019-03-24T06:37:38.783Z,70.70
2019-03-24T06:40:08.545Z,70.70
2019-03-24T06:42:37.592Z,71.30
2019-03-24T06:45:07.285Z,71.80
2019-03-24T06:47:36.487Z,72.30
2019-03-24T06:50:07.331Z,72.70
2019-03-24T06:52:36.624Z,73.50
2019-03-24T06:55:05.404Z,73.00
2019-03-24T06:57:34.632Z,72.70
2019-03-24T07:00:03.504Z,72.60
2019-03-24T07:02:32.264Z,72.40
2019-03-24T07:05:01.705Z,72.80
2019-03-24T07:07:30.624Z,73.60
2019-03-24T07:09:59.504Z,73.60
2019-03-24T07:12:29.545Z,73.70
2019-03-24T07:14:58.444Z,74.70
2019-03-24T07:17:27.185Z,74.20
2019-03-24T07:19:55.823Z,73.60
2019-03-24T07:22:24.549Z,74.00
2019-03-24T07:24:53.484Z,74.00
2019-03-24T07:27:22.323Z,74.40
2019-03-24T07:29:51.145Z,74.90
2019-03-24T07:32:20.024Z,74.90
2019-03-24T07:34:48.726Z,74.70
2019-03-24T07:37:18.907Z,74.20
2019-03-24T07:39:48.207Z,73.50
2019-03-24T07:42:16.927Z,72.10
2019-03-24T07:44:46.024Z,69.80
2019-03-24T07:47:15.124Z,69.80
2019-03-24T07:49:44.153Z,70.10
2019-03-24T07:52:12.993Z,68.10
2019-03-24T07:54:42.424Z,70.10
2019-03-24T07:57:11.324Z,71.70
2019-03-24T07:59:40.084Z,71.80
2019-03-24T08:02:09.644Z,71.40
2019-03-24T08:04:38.464Z,69.80
2019-03-24T08:07:07.368Z,70.10
2019-03-24T08:09:37.224Z,69.20
2019-03-24T08:12:06.544Z,67.10
2019-03-24T08:14:35.585Z,65.20
2019-03-24T08:17:05.025Z,64.00
2019-03-24T08:19:34.564Z,63.30
2019-03-24T08:22:03.313Z,63.60
2019-03-24T08:24:32.294Z,65.70
2019-03-24T08:27:01.466Z,62.10
2019-03-24T08:29:30.394Z,61.80
2019-03-24T08:32:00.027Z,56.40
2019-03-24T08:34:28.865Z,54.60
2019-03-24T08:36:57.803Z,55.80
2019-03-24T08:39:27.284Z,55.40
2019-03-24T08:41:56.404Z,54.00
2019-03-24T08:44:25.264Z,54.50
2019-03-24T08:46:57.848Z,47.10
2019-03-24T08:49:31.144Z,45.50
2019-03-24T08:52:01.166Z,44.70
2019-03-24T08:54:29.627Z,47.10
2019-03-24T08:56:58.513Z,44.30
2019-03-24T08:59:28.364Z,47.10
2019-03-24T09:01:57.472Z,47.40
2019-03-24T09:04:28.145Z,45.90
2019-03-24T09:06:56.345Z,44.70
2019-03-24T09:09:25.764Z,45.40
2019-03-24T09:11:54.605Z,45.00
2019-03-24T09:14:24.324Z,44.10
2019-03-24T09:16:53.165Z,44.00
2019-03-24T09:19:22.504Z,43.50
2019-03-24T09:21:51.344Z,45.00
2019-03-24T09:24:20.065Z,44.90
2019-03-24T09:26:48.701Z,46.30
2019-03-24T09:29:17.551Z,43.10
2019-03-24T09:31:46.984Z,41.90
2019-03-24T09:34:15.964Z,43.40
2019-03-24T09:36:44.864Z,43.70
2019-03-24T09:39:14.687Z,41.50
2019-03-24T09:41:44.264Z,43.70
2019-03-24T09:44:13.124Z,43.30
2019-03-24T09:46:41.984Z,42.60
2019-03-24T09:49:11.284Z,43.70
2019-03-24T09:51:40.504Z,42.80
2019-03-24T09:54:09.524Z,42.50
2019-03-24T09:56:40.666Z,41.70
2019-03-24T09:59:09.567Z,40.00
2019-03-24T10:01:39.385Z,40.80
2019-03-24T10:04:08.145Z,41.70
2019-03-24T10:06:37.064Z,42.70
2019-03-24T10:09:07.189Z,41.90
2019-03-24T10:11:36.067Z,40.60
2019-03-24T10:14:04.866Z,42.40
2019-03-24T10:16:33.886Z,39.00
2019-03-24T10:19:13.322Z,41.70
2019-03-24T10:21:33.128Z,42.20
2019-03-24T10:24:02.145Z,40.90
2019-03-24T10:26:31.084Z,42.10
2019-03-24T10:28:59.864Z,40.10
2019-03-24T10:31:28.844Z,42.10
2019-03-24T10:33:58.104Z,42.00
2019-03-24T10:36:27.212Z,43.10
2019-03-24T10:38:55.884Z,42.70
2019-03-24T10:41:24.644Z,42.60
2019-03-24T10:43:53.808Z,40.40
2019-03-24T10:46:23.204Z,40.50
2019-03-24T10:48:52.124Z,42.60
2019-03-24T10:51:24.185Z,43.70
2019-03-24T10:53:53.165Z,42.90
2019-03-24T10:56:22.083Z,41.40
2019-03-24T10:58:51.124Z,42.90
2019-03-24T11:01:20.068Z,39.20
2019-03-24T11:03:48.826Z,40.00
2019-03-24T11:06:17.650Z,41.70
2019-03-24T11:08:46.509Z,39.60
2019-03-24T11:11:15.430Z,40.40
2019-03-24T11:13:44.229Z,38.40
2019-03-24T11:16:13.210Z,39.70
2019-03-24T11:18:45.008Z,41.10
2019-03-24T11:21:14.484Z,40.80
2019-03-24T11:23:43.785Z,38.40
2019-03-24T11:26:14.104Z,39.30
2019-03-24T11:28:43.167Z,38.40
2019-03-24T11:31:12.208Z,40.90
2019-03-24T11:33:41.724Z,40.40
2019-03-24T11:36:10.586Z,38.30
2019-03-24T11:38:39.704Z,40.70
2019-03-24T11:41:08.567Z,41.10
2019-03-24T11:43:37.763Z,41.90
2019-03-24T11:46:06.613Z,41.00
2019-03-24T11:48:37.571Z,38.40
2019-03-24T11:51:06.325Z,39.90
2019-03-24T11:53:36.464Z,39.10
2019-03-24T11:56:05.964Z,39.20
2019-03-24T11:58:34.979Z,38.00
2019-03-24T12:01:03.904Z,37.40
2019-03-24T12:03:32.965Z,38.20
2019-03-24T12:06:01.949Z,38.80
2019-03-24T12:08:30.784Z,38.10
2019-03-24T12:10:59.554Z,37.10
2019-03-24T12:13:28.711Z,38.40
2019-03-24T12:15:58.088Z,38.10
2019-03-24T12:18:27.584Z,37.80
2019-03-24T12:20:56.684Z,38.00
2019-03-24T12:23:25.805Z,38.40
2019-03-24T12:25:54.704Z,36.70
2019-03-24T12:28:23.767Z,40.00
2019-03-24T12:30:53.385Z,37.10
2019-03-24T12:33:22.764Z,36.20
2019-03-24T12:35:52.527Z,38.20
2019-03-24T12:38:22.127Z,35.00
2019-03-24T12:40:51.138Z,37.80
2019-03-24T12:43:20.844Z,37.10
2019-03-24T12:45:49.825Z,37.30
2019-03-24T12:48:18.706Z,36.10
2019-03-24T12:50:47.464Z,35.70
2019-03-24T12:53:17.170Z,36.20
2019-03-24T12:55:46.212Z,36.30
2019-03-24T12:58:15.606Z,35.00
2019-03-24T13:00:44.544Z,36.50
2019-03-24T13:03:13.569Z,36.30
2019-03-24T13:05:42.604Z,34.50
2019-03-24T13:08:16.827Z,36.70
2019-03-24T13:10:46.624Z,36.80
2019-03-24T13:13:15.844Z,37.30
2019-03-24T13:15:45.355Z,37.00
2019-03-24T13:18:14.447Z,35.80
2019-03-24T13:20:43.544Z,36.70
2019-03-24T13:23:12.606Z,36.80
2019-03-24T13:25:42.346Z,35.90
2019-03-24T13:28:11.484Z,35.00
2019-03-24T13:30:40.425Z,34.90
2019-03-24T13:33:09.524Z,35.90
2019-03-24T13:35:38.447Z,36.40
2019-03-24T13:38:08.068Z,36.50
2019-03-24T13:40:37.069Z,35.50
2019-03-24T13:43:06.065Z,36.20
2019-03-24T13:45:35.045Z,36.00
2019-03-24T13:48:04.166Z,35.70
2019-03-24T13:50:32.964Z,34.60
2019-03-24T13:53:01.998Z,36.20
2019-03-24T13:55:30.964Z,35.60
2019-03-24T13:58:00.175Z,36.00
2019-03-24T14:00:29.065Z,36.70
2019-03-24T14:02:57.986Z,37.80
2019-03-24T14:05:26.744Z,37.90
2019-03-24T14:07:55.824Z,37.90
2019-03-24T14:10:25.464Z,37.20
2019-03-24T14:12:54.524Z,38.40
2019-03-24T14:15:23.585Z,37.80
2019-03-24T14:17:53.532Z,38.10
2019-03-24T14:20:22.655Z,39.00
2019-03-24T14:22:55.179Z,38.70
2019-03-24T14:25:23.164Z,37.40
2019-03-24T14:27:51.992Z,36.10
2019-03-24T14:30:24.524Z,36.80
2019-03-24T14:32:54.104Z,37.60
2019-03-24T14:35:23.344Z,37.00
2019-03-24T14:37:52.225Z,36.20
2019-03-24T14:40:22.024Z,36.70
2019-03-24T14:42:51.044Z,37.30
2019-03-24T14:45:20.205Z,38.90
2019-03-24T14:47:49.524Z,37.80
2019-03-24T14:50:19.944Z,37.20
2019-03-24T14:52:49.345Z,37.20
2019-03-24T14:55:18.328Z,38.40
2019-03-24T14:57:47.406Z,36.70
2019-03-24T15:00:20.544Z,38.60
2019-03-24T15:02:49.624Z,37.30
2019-03-24T15:05:18.904Z,39.30
2019-03-24T15:07:48.345Z,39.20
2019-03-24T15:10:17.353Z,41.20
2019-03-24T15:12:46.744Z,39.70
2019-03-24T15:15:16.166Z,38.80
2019-03-24T15:17:45.605Z,40.10
2019-03-24T15:20:15.064Z,40.20
2019-03-24T15:22:44.885Z,40.80
2019-03-24T15:25:14.024Z,39.50
2019-03-24T15:27:42.845Z,40.40
2019-03-24T15:30:13.785Z,40.40
2019-03-24T15:32:42.704Z,39.90
2019-03-24T15:35:11.804Z,41.90
2019-03-24T15:37:40.824Z,39.30
2019-03-24T15:40:09.931Z,40.50
2019-03-24T15:42:39.044Z,39.90
2019-03-24T15:45:09.444Z,39.70
2019-03-24T15:47:38.588Z,41.10
2019-03-24T15:50:13.608Z,41.10
2019-03-24T15:52:42.524Z,42.20
2019-03-24T15:55:11.864Z,41.30
2019-03-24T15:57:41.804Z,43.20
2019-03-24T16:00:11.984Z,41.70
2019-03-24T16:02:41.465Z,42.30
2019-03-24T16:05:11.366Z,41.10
2019-03-24T16:07:41.406Z,42.40
2019-03-24T16:10:11.004Z,43.60
2019-03-24T16:12:40.006Z,43.40
2019-03-24T16:15:10.104Z,45.00
2019-03-24T16:17:39.064Z,45.40
2019-03-24T16:20:08.124Z,46.60
2019-03-24T16:22:37.464Z,46.90
2019-03-24T16:25:08.185Z,45.10
2019-03-24T16:27:36.885Z,46.30
2019-03-24T16:30:07.313Z,45.90
2019-03-24T16:32:38.935Z,46.00
2019-03-24T16:35:08.972Z,45.80
2019-03-24T16:37:37.932Z,46.40
2019-03-24T16:40:07.702Z,46.60
2019-03-24T16:42:36.793Z,47.00
2019-03-24T16:45:06.252Z,47.20
2019-03-24T16:47:35.474Z,47.30
2019-03-24T16:50:07.068Z,47.70
2019-03-24T16:52:36.192Z,48.40
2019-03-24T16:55:07.864Z,49.00
2019-03-24T16:57:36.650Z,49.10
2019-03-24T17:00:07.752Z,49.70
2019-03-24T17:02:36.565Z,49.20
2019-03-24T17:05:07.255Z,49.60
2019-03-24T17:07:36.329Z,50.00
2019-03-24T17:10:07.094Z,50.30
2019-03-24T17:12:36.287Z,51.10
2019-03-24T17:15:07.546Z,51.70
2019-03-24T17:17:36.545Z,52.00
2019-03-24T17:20:08.443Z,51.90
2019-03-24T17:22:37.566Z,52.10
2019-03-24T17:25:07.305Z,52.70
2019-03-24T17:27:36.124Z,52.90
2019-03-24T17:30:08.022Z,52.70
2019-03-24T17:32:36.925Z,52.40
2019-03-24T17:35:07.525Z,52.80
2019-03-24T17:37:35.726Z,52.90
2019-03-24T17:40:07.364Z,53.20
2019-03-24T17:42:36.284Z,54.00
2019-03-24T17:45:08.275Z,55.30
2019-03-24T17:47:37.167Z,55.00
2019-03-24T17:50:07.705Z,55.10
2019-03-24T17:52:36.665Z,55.20
2019-03-24T17:55:05.645Z,55.60
2019-03-24T17:57:34.424Z,56.00
2019-03-24T18:00:03.931Z,56.10
2019-03-24T18:02:33.004Z,56.30
2019-03-24T18:05:01.872Z,56.20
2019-03-24T18:07:31.044Z,56.50
2019-03-24T18:09:59.933Z,56.40
2019-03-24T18:12:28.745Z,56.70
2019-03-24T18:14:57.564Z,56.40
2019-03-24T18:17:27.225Z,56.90
2019-03-24T18:19:56.374Z,57.40
2019-03-24T18:22:25.645Z,58.30
2019-03-24T18:24:54.486Z,57.60
2019-03-24T18:27:23.848Z,57.00
2019-03-24T18:29:52.984Z,57.20
2019-03-24T18:32:23.046Z,58.10
2019-03-24T18:34:52.303Z,58.00
2019-03-24T18:37:21.944Z,57.80
2019-03-24T18:39:51.065Z,57.50
2019-03-24T18:42:19.964Z,57.60
2019-03-24T18:44:49.266Z,56.70
2019-03-24T18:47:18.104Z,57.20
2019-03-24T18:49:47.224Z,56.90
2019-03-24T18:52:22.637Z,57.40
2019-03-24T18:54:46.744Z,57.70
2019-03-24T18:57:15.624Z,58.10
2019-03-24T18:59:44.844Z,59.20
2019-03-24T19:02:14.044Z,59.00
2019-03-24T19:04:42.945Z,58.40
2019-03-24T19:07:12.025Z,57.80
2019-03-24T19:09:40.925Z,58.10
2019-03-24T19:12:09.829Z,58.40
2019-03-24T19:14:40.181Z,58.50
2019-03-24T19:17:10.222Z,58.40
2019-03-24T19:19:39.325Z,58.60
2019-03-24T19:22:08.204Z,59.60
2019-03-24T19:24:37.150Z,59.80
2019-03-24T19:27:05.945Z,58.80
2019-03-24T19:29:34.984Z,58.50
2019-03-24T19:32:03.892Z,58.30
2019-03-24T19:34:33.384Z,57.80
2019-03-24T19:37:02.383Z,57.90
2019-03-24T19:39:31.552Z,58.30
2019-03-24T19:42:00.264Z,58.40
2019-03-24T19:44:29.128Z,59.00
2019-03-24T19:46:58.190Z,58.20
2019-03-24T19:49:27.366Z,58.20
2019-03-24T19:51:56.067Z,58.20
2019-03-24T19:54:24.848Z,57.80
2019-03-24T19:56:53.629Z,58.20
2019-03-24T19:59:22.426Z,58.20
2019-03-24T20:01:51.326Z,58.60
2019-03-24T20:04:20.491Z,59.30
2019-03-24T20:06:49.626Z,59.60
2019-03-24T20:09:18.706Z,59.10
2019-03-24T20:11:47.744Z,59.30
2019-03-24T20:14:17.307Z,58.40
2019-03-24T20:16:46.667Z,58.90
2019-03-24T20:19:15.907Z,58.00
2019-03-24T20:21:44.886Z,57.70
2019-03-24T20:24:13.648Z,55.70
2019-03-24T20:26:42.446Z,56.40
2019-03-24T20:29:11.326Z,55.90
2019-03-24T20:31:40.124Z,56.10
2019-03-24T20:34:09.003Z,56.30
2019-03-24T20:36:38.104Z,57.00
2019-03-24T20:39:09.385Z,57.30
2019-03-24T20:41:38.684Z,57.10
2019-03-24T20:44:08.005Z,57.40
2019-03-24T20:46:37.065Z,57.10
2019-03-24T20:49:06.125Z,57.20
2019-03-24T20:51:35.704Z,57.30
2019-03-24T20:54:04.825Z,56.40
2019-03-24T20:56:34.145Z,56.50
2019-03-24T20:59:03.266Z,56.10
2019-03-24T21:01:34.024Z,56.60
2019-03-24T21:04:03.344Z,57.10
2019-03-24T21:06:32.245Z,57.00
2019-03-24T21:09:01.005Z,57.20
2019-03-24T21:11:30.184Z,57.20
2019-03-24T21:13:59.423Z,57.60
2019-03-24T21:16:28.228Z,58.10
2019-03-24T21:18:57.167Z,58.50
2019-03-24T21:21:26.325Z,58.70
2019-03-24T21:23:55.484Z,58.30
2019-03-24T21:26:24.765Z,58.40
2019-03-24T21:28:55.827Z,57.80
2019-03-24T21:31:23.865Z,57.90
2019-03-24T21:33:52.983Z,57.40
2019-03-24T21:36:22.005Z,57.20
2019-03-24T21:38:51.224Z,57.00
2019-03-24T21:41:21.166Z,56.90
2019-03-24T21:43:50.466Z,57.40
2019-03-24T21:46:19.524Z,58.10
2019-03-24T21:48:48.444Z,58.30
2019-03-24T21:51:18.145Z,58.20
2019-03-24T21:53:46.924Z,58.40
2019-03-24T21:56:15.805Z,58.90
2019-03-24T21:58:45.244Z,58.30
2019-03-24T22:01:14.905Z,57.70
2019-03-24T22:03:43.785Z,58.10
2019-03-24T22:06:12.645Z,58.20
2019-03-24T22:08:42.064Z,58.90
2019-03-24T22:11:11.045Z,58.20
2019-03-24T22:13:40.184Z,58.60
2019-03-24T22:16:12.405Z,58.30
2019-03-24T22:18:41.105Z,59.50
2019-03-24T22:21:10.544Z,60.30
2019-03-24T22:23:39.524Z,59.20
2019-03-24T22:26:09.146Z,58.80
2019-03-24T22:28:37.886Z,57.80
2019-03-24T22:31:07.724Z,58.40
2019-03-24T22:33:36.543Z,56.60
2019-03-24T22:36:05.693Z,56.00
2019-03-24T22:38:34.904Z,55.70
2019-03-24T22:41:03.925Z,56.30
2019-03-24T22:43:33.763Z,56.80
2019-03-24T22:46:02.575Z,55.90
2019-03-24T22:48:32.004Z,56.50
2019-03-24T22:51:01.104Z,56.50
2019-03-24T22:53:29.964Z,56.20
2019-03-24T22:55:58.764Z,55.00
2019-03-24T22:58:27.784Z,55.80
2019-03-24T23:00:57.391Z,55.70
2019-03-24T23:03:26.467Z,56.10
2019-03-24T23:05:55.606Z,55.10
2019-03-24T23:08:24.626Z,55.40
2019-03-24T23:10:53.704Z,55.00
2019-03-24T23:13:22.584Z,54.60
2019-03-24T23:15:51.404Z,54.80
2019-03-24T23:18:20.444Z,55.40
2019-03-24T23:20:49.424Z,54.80
2019-03-24T23:23:18.244Z,54.60
2019-03-24T23:25:47.150Z,54.00
2019-03-24T23:28:16.797Z,54.10
2019-03-24T23:30:46.728Z,54.00
2019-03-24T23:33:15.684Z,54.80
2019-03-24T23:35:45.087Z,55.20
2019-03-24T23:38:14.885Z,55.60
2019-03-24T23:40:43.607Z,55.30
2019-03-24T23:43:13.044Z,56.00
2019-03-24T23:45:42.424Z,56.50
2019-03-24T23:48:11.486Z,56.40
2019-03-24T23:50:40.667Z,56.80
2019-03-24T23:53:10.104Z,57.50
2019-03-24T23:55:39.647Z,57.70
2019-03-24T23:58:08.525Z,57.90
